<?xml version="1.0" encoding="UTF-8" standalone="no" ?>
<gpx xmlns="http://www.topografix.com/GPX/1/1" xmlns:xsi="http://www.w3.org/2001/XMLSchema-instance" xsi:schemaLocation="http://www.topografix.com/GPX/1/1 http://www.topografix.com/GPX/1/1/gpx.xsd" version="1.1" creator="VisuGPX - https://www.visugpx.com">
  <metadata>
    <name>Saône-Fourvière-CxRousse-Rhône</name>
    <desc><![CDATA[Le quai Arloing n'est pas le meilleur passage.]]></desc>
  </metadata>
  <trk>
    <name><![CDATA[Sequence 1]]></name>
    <trkseg>
      <trkpt lat="45.75442" lon="4.82733">
        <ele>177</ele>
        <time>2016-09-21T05:21:08Z</time>
      </trkpt>
      <trkpt lat="45.75431" lon="4.82732">
        <ele>140</ele>
        <time>2016-09-21T05:21:16Z</time>
      </trkpt>
      <trkpt lat="45.75467" lon="4.82689">
        <ele>137</ele>
        <time>2016-09-21T05:21:42Z</time>
      </trkpt>
      <trkpt lat="45.75469" lon="4.82686">
        <ele>138</ele>
        <time>2016-09-21T05:21:43Z</time>
      </trkpt>
      <trkpt lat="45.75501" lon="4.82709">
        <ele>134</ele>
        <time>2016-09-21T05:22:04Z</time>
      </trkpt>
      <trkpt lat="45.75504" lon="4.82707">
        <ele>133</ele>
        <time>2016-09-21T05:22:05Z</time>
      </trkpt>
      <trkpt lat="45.75532" lon="4.82721">
        <ele>142</ele>
        <time>2016-09-21T05:22:24Z</time>
      </trkpt>
      <trkpt lat="45.75541" lon="4.82736">
        <ele>140</ele>
        <time>2016-09-21T05:22:33Z</time>
      </trkpt>
      <trkpt lat="45.75558" lon="4.82728">
        <ele>137</ele>
        <time>2016-09-21T05:22:42Z</time>
      </trkpt>
      <trkpt lat="45.75568" lon="4.82714">
        <ele>136</ele>
        <time>2016-09-21T05:22:49Z</time>
      </trkpt>
      <trkpt lat="45.75598" lon="4.82669">
        <ele>134</ele>
        <time>2016-09-21T05:23:09Z</time>
      </trkpt>
      <trkpt lat="45.75604" lon="4.82653">
        <ele>134</ele>
        <time>2016-09-21T05:23:15Z</time>
      </trkpt>
      <trkpt lat="45.75605" lon="4.82641">
        <ele>135</ele>
        <time>2016-09-21T05:23:22Z</time>
      </trkpt>
      <trkpt lat="45.75621" lon="4.82645">
        <ele>143</ele>
        <time>2016-09-21T05:23:34Z</time>
      </trkpt>
      <trkpt lat="45.75645" lon="4.82652">
        <ele>137</ele>
        <time>2016-09-21T05:23:50Z</time>
      </trkpt>
      <trkpt lat="45.75658" lon="4.82665">
        <ele>140</ele>
        <time>2016-09-21T05:23:59Z</time>
      </trkpt>
      <trkpt lat="45.75673" lon="4.82682">
        <ele>146</ele>
        <time>2016-09-21T05:24:09Z</time>
      </trkpt>
      <trkpt lat="45.75698" lon="4.82709">
        <ele>158</ele>
        <time>2016-09-21T05:24:25Z</time>
      </trkpt>
      <trkpt lat="45.75703" lon="4.82714">
        <ele>159</ele>
        <time>2016-09-21T05:24:28Z</time>
      </trkpt>
      <trkpt lat="45.75721" lon="4.82729">
        <ele>166</ele>
        <time>2016-09-21T05:24:39Z</time>
      </trkpt>
      <trkpt lat="45.75744" lon="4.82751">
        <ele>169</ele>
        <time>2016-09-21T05:24:54Z</time>
      </trkpt>
      <trkpt lat="45.7577" lon="4.82772">
        <ele>175</ele>
        <time>2016-09-21T05:25:10Z</time>
      </trkpt>
      <trkpt lat="45.75773" lon="4.82775">
        <ele>175</ele>
        <time>2016-09-21T05:25:12Z</time>
      </trkpt>
      <trkpt lat="45.75796" lon="4.82792">
        <ele>174</ele>
        <time>2016-09-21T05:25:28Z</time>
      </trkpt>
      <trkpt lat="45.75804" lon="4.82803">
        <ele>174</ele>
        <time>2016-09-21T05:25:35Z</time>
      </trkpt>
      <trkpt lat="45.75816" lon="4.82816">
        <ele>172</ele>
        <time>2016-09-21T05:25:45Z</time>
      </trkpt>
      <trkpt lat="45.75833" lon="4.82835">
        <ele>171</ele>
        <time>2016-09-21T05:25:58Z</time>
      </trkpt>
      <trkpt lat="45.75855" lon="4.82859">
        <ele>172</ele>
        <time>2016-09-21T05:26:13Z</time>
      </trkpt>
      <trkpt lat="45.75861" lon="4.82866">
        <ele>171</ele>
        <time>2016-09-21T05:26:18Z</time>
      </trkpt>
      <trkpt lat="45.75875" lon="4.82883">
        <ele>171</ele>
        <time>2016-09-21T05:26:29Z</time>
      </trkpt>
      <trkpt lat="45.75891" lon="4.829">
        <ele>172</ele>
        <time>2016-09-21T05:26:41Z</time>
      </trkpt>
      <trkpt lat="45.75909" lon="4.82921">
        <ele>171</ele>
        <time>2016-09-21T05:26:54Z</time>
      </trkpt>
      <trkpt lat="45.75921" lon="4.8293">
        <ele>170</ele>
        <time>2016-09-21T05:27:02Z</time>
      </trkpt>
      <trkpt lat="45.75958" lon="4.82957">
        <ele>165</ele>
        <time>2016-09-21T05:27:27Z</time>
      </trkpt>
      <trkpt lat="45.75974" lon="4.82975">
        <ele>172</ele>
        <time>2016-09-21T05:27:39Z</time>
      </trkpt>
      <trkpt lat="45.75982" lon="4.82982">
        <ele>173</ele>
        <time>2016-09-21T05:27:44Z</time>
      </trkpt>
      <trkpt lat="45.75996" lon="4.82994">
        <ele>173</ele>
        <time>2016-09-21T05:27:53Z</time>
      </trkpt>
      <trkpt lat="45.76014" lon="4.83009">
        <ele>173</ele>
        <time>2016-09-21T05:28:04Z</time>
      </trkpt>
      <trkpt lat="45.76036" lon="4.83027">
        <ele>173</ele>
        <time>2016-09-21T05:28:19Z</time>
      </trkpt>
      <trkpt lat="45.76046" lon="4.83035">
        <ele>173</ele>
        <time>2016-09-21T05:28:26Z</time>
      </trkpt>
      <trkpt lat="45.7606" lon="4.8305">
        <ele>172</ele>
        <time>2016-09-21T05:28:37Z</time>
      </trkpt>
      <trkpt lat="45.76078" lon="4.83067">
        <ele>172</ele>
        <time>2016-09-21T05:28:50Z</time>
      </trkpt>
      <trkpt lat="45.76096" lon="4.83077">
        <ele>169</ele>
        <time>2016-09-21T05:29:02Z</time>
      </trkpt>
      <trkpt lat="45.76108" lon="4.83081">
        <ele>170</ele>
        <time>2016-09-21T05:29:20Z</time>
      </trkpt>
      <trkpt lat="45.76109" lon="4.83082">
        <ele>170</ele>
        <time>2016-09-21T05:29:25Z</time>
      </trkpt>
      <trkpt lat="45.7611" lon="4.83084">
        <ele>170</ele>
        <time>2016-09-21T05:29:32Z</time>
      </trkpt>
      <trkpt lat="45.76126" lon="4.83091">
        <ele>167</ele>
        <time>2016-09-21T05:29:43Z</time>
      </trkpt>
      <trkpt lat="45.76158" lon="4.831">
        <ele>168</ele>
        <time>2016-09-21T05:30:01Z</time>
      </trkpt>
      <trkpt lat="45.76166" lon="4.831">
        <ele>168</ele>
        <time>2016-09-21T05:30:06Z</time>
      </trkpt>
      <trkpt lat="45.76187" lon="4.83108">
        <ele>168</ele>
        <time>2016-09-21T05:30:18Z</time>
      </trkpt>
      <trkpt lat="45.76203" lon="4.83113">
        <ele>168</ele>
        <time>2016-09-21T05:30:28Z</time>
      </trkpt>
      <trkpt lat="45.76221" lon="4.83117">
        <ele>171</ele>
        <time>2016-09-21T05:30:39Z</time>
      </trkpt>
      <trkpt lat="45.76238" lon="4.83121">
        <ele>171</ele>
        <time>2016-09-21T05:30:49Z</time>
      </trkpt>
      <trkpt lat="45.76259" lon="4.83127">
        <ele>168</ele>
        <time>2016-09-21T05:31:00Z</time>
      </trkpt>
      <trkpt lat="45.76278" lon="4.83127">
        <ele>170</ele>
        <time>2016-09-21T05:31:11Z</time>
      </trkpt>
      <trkpt lat="45.76296" lon="4.83128">
        <ele>173</ele>
        <time>2016-09-21T05:31:22Z</time>
      </trkpt>
      <trkpt lat="45.76313" lon="4.83129">
        <ele>171</ele>
        <time>2016-09-21T05:31:33Z</time>
      </trkpt>
      <trkpt lat="45.76343" lon="4.83132">
        <ele>177</ele>
        <time>2016-09-21T05:31:52Z</time>
      </trkpt>
      <trkpt lat="45.76361" lon="4.83132">
        <ele>172</ele>
        <time>2016-09-21T05:32:01Z</time>
      </trkpt>
      <trkpt lat="45.76383" lon="4.83133">
        <ele>172</ele>
        <time>2016-09-21T05:32:14Z</time>
      </trkpt>
      <trkpt lat="45.76393" lon="4.83132">
        <ele>173</ele>
        <time>2016-09-21T05:32:19Z</time>
      </trkpt>
      <trkpt lat="45.76421" lon="4.83125">
        <ele>178</ele>
        <time>2016-09-21T05:32:34Z</time>
      </trkpt>
      <trkpt lat="45.76447" lon="4.8312">
        <ele>182</ele>
        <time>2016-09-21T05:32:48Z</time>
      </trkpt>
      <trkpt lat="45.76455" lon="4.83119">
        <ele>183</ele>
        <time>2016-09-21T05:32:52Z</time>
      </trkpt>
      <trkpt lat="45.76474" lon="4.83119">
        <ele>184</ele>
        <time>2016-09-21T05:33:03Z</time>
      </trkpt>
      <trkpt lat="45.76494" lon="4.83117">
        <ele>186</ele>
        <time>2016-09-21T05:33:14Z</time>
      </trkpt>
      <trkpt lat="45.76514" lon="4.8312">
        <ele>184</ele>
        <time>2016-09-21T05:33:26Z</time>
      </trkpt>
      <trkpt lat="45.76532" lon="4.83119">
        <ele>184</ele>
        <time>2016-09-21T05:33:37Z</time>
      </trkpt>
      <trkpt lat="45.76548" lon="4.83101">
        <ele>188</ele>
        <time>2016-09-21T05:33:48Z</time>
      </trkpt>
      <trkpt lat="45.76564" lon="4.83085">
        <ele>193</ele>
        <time>2016-09-21T05:33:59Z</time>
      </trkpt>
      <trkpt lat="45.76592" lon="4.83054">
        <ele>185</ele>
        <time>2016-09-21T05:34:21Z</time>
      </trkpt>
      <trkpt lat="45.76593" lon="4.83054">
        <ele>184</ele>
        <time>2016-09-21T05:34:22Z</time>
      </trkpt>
      <trkpt lat="45.76608" lon="4.83043">
        <ele>179</ele>
        <time>2016-09-21T05:34:34Z</time>
      </trkpt>
      <trkpt lat="45.76623" lon="4.83034">
        <ele>173</ele>
        <time>2016-09-21T05:34:44Z</time>
      </trkpt>
      <trkpt lat="45.76639" lon="4.83021">
        <ele>168</ele>
        <time>2016-09-21T05:34:55Z</time>
      </trkpt>
      <trkpt lat="45.76654" lon="4.83006">
        <ele>170</ele>
        <time>2016-09-21T05:35:06Z</time>
      </trkpt>
      <trkpt lat="45.76689" lon="4.82971">
        <ele>160</ele>
        <time>2016-09-21T05:35:33Z</time>
      </trkpt>
      <trkpt lat="45.76702" lon="4.82957">
        <ele>161</ele>
        <time>2016-09-21T05:35:42Z</time>
      </trkpt>
      <trkpt lat="45.76718" lon="4.82929">
        <ele>168</ele>
        <time>2016-09-21T05:35:55Z</time>
      </trkpt>
      <trkpt lat="45.76726" lon="4.82908">
        <ele>172</ele>
        <time>2016-09-21T05:36:03Z</time>
      </trkpt>
      <trkpt lat="45.7674" lon="4.82886">
        <ele>168</ele>
        <time>2016-09-21T05:36:15Z</time>
      </trkpt>
      <trkpt lat="45.76743" lon="4.82882">
        <ele>167</ele>
        <time>2016-09-21T05:36:18Z</time>
      </trkpt>
      <trkpt lat="45.76758" lon="4.82858">
        <ele>170</ele>
        <time>2016-09-21T05:36:30Z</time>
      </trkpt>
      <trkpt lat="45.7677" lon="4.82838">
        <ele>173</ele>
        <time>2016-09-21T05:36:40Z</time>
      </trkpt>
      <trkpt lat="45.76787" lon="4.82804">
        <ele>178</ele>
        <time>2016-09-21T05:37:00Z</time>
      </trkpt>
      <trkpt lat="45.76768" lon="4.82796">
        <ele>177</ele>
        <time>2016-09-21T05:37:08Z</time>
      </trkpt>
      <trkpt lat="45.76747" lon="4.82785">
        <ele>178</ele>
        <time>2016-09-21T05:37:20Z</time>
      </trkpt>
      <trkpt lat="45.76742" lon="4.8278">
        <ele>176</ele>
        <time>2016-09-21T05:37:24Z</time>
      </trkpt>
      <trkpt lat="45.76727" lon="4.8277">
        <ele>173</ele>
        <time>2016-09-21T05:37:35Z</time>
      </trkpt>
      <trkpt lat="45.76714" lon="4.82766">
        <ele>170</ele>
        <time>2016-09-21T05:37:46Z</time>
      </trkpt>
      <trkpt lat="45.76697" lon="4.82774">
        <ele>170</ele>
        <time>2016-09-21T05:37:57Z</time>
      </trkpt>
      <trkpt lat="45.76681" lon="4.82793">
        <ele>173</ele>
        <time>2016-09-21T05:38:08Z</time>
      </trkpt>
      <trkpt lat="45.76647" lon="4.82825">
        <ele>175</ele>
        <time>2016-09-21T05:38:28Z</time>
      </trkpt>
      <trkpt lat="45.76639" lon="4.82836">
        <ele>173</ele>
        <time>2016-09-21T05:38:35Z</time>
      </trkpt>
      <trkpt lat="45.76615" lon="4.8285">
        <ele>177</ele>
        <time>2016-09-21T05:38:51Z</time>
      </trkpt>
      <trkpt lat="45.76614" lon="4.82849">
        <ele>177</ele>
        <time>2016-09-21T05:38:52Z</time>
      </trkpt>
      <trkpt lat="45.76596" lon="4.82807">
        <ele>178</ele>
        <time>2016-09-21T05:39:13Z</time>
      </trkpt>
      <trkpt lat="45.76593" lon="4.82807">
        <ele>179</ele>
        <time>2016-09-21T05:39:14Z</time>
      </trkpt>
      <trkpt lat="45.76598" lon="4.82758">
        <ele>177</ele>
        <time>2016-09-21T05:39:30Z</time>
      </trkpt>
      <trkpt lat="45.76594" lon="4.82742">
        <ele>177</ele>
        <time>2016-09-21T05:39:38Z</time>
      </trkpt>
      <trkpt lat="45.76585" lon="4.82729">
        <ele>181</ele>
        <time>2016-09-21T05:39:47Z</time>
      </trkpt>
      <trkpt lat="45.76588" lon="4.827">
        <ele>178</ele>
        <time>2016-09-21T05:39:58Z</time>
      </trkpt>
      <trkpt lat="45.76576" lon="4.82659">
        <ele>178</ele>
        <time>2016-09-21T05:40:10Z</time>
      </trkpt>
      <trkpt lat="45.76566" lon="4.82669">
        <ele>181</ele>
        <time>2016-09-21T05:40:21Z</time>
      </trkpt>
      <trkpt lat="45.76538" lon="4.82669">
        <ele>187</ele>
        <time>2016-09-21T05:40:36Z</time>
      </trkpt>
      <trkpt lat="45.76513" lon="4.82664">
        <ele>191</ele>
        <time>2016-09-21T05:40:48Z</time>
      </trkpt>
      <trkpt lat="45.76493" lon="4.82646">
        <ele>193</ele>
        <time>2016-09-21T05:41:05Z</time>
      </trkpt>
      <trkpt lat="45.76463" lon="4.82649">
        <ele>196</ele>
        <time>2016-09-21T05:41:22Z</time>
      </trkpt>
      <trkpt lat="45.76464" lon="4.82648">
        <ele>197</ele>
        <time>2016-09-21T05:41:23Z</time>
      </trkpt>
      <trkpt lat="45.76436" lon="4.82622">
        <ele>199</ele>
        <time>2016-09-21T05:41:44Z</time>
      </trkpt>
      <trkpt lat="45.76434" lon="4.82621">
        <ele>198</ele>
        <time>2016-09-21T05:41:45Z</time>
      </trkpt>
      <trkpt lat="45.76401" lon="4.82639">
        <ele>200</ele>
        <time>2016-09-21T05:41:57Z</time>
      </trkpt>
      <trkpt lat="45.76366" lon="4.8263">
        <ele>213</ele>
        <time>2016-09-21T05:42:15Z</time>
      </trkpt>
      <trkpt lat="45.76365" lon="4.82619">
        <ele>215</ele>
        <time>2016-09-21T05:42:20Z</time>
      </trkpt>
      <trkpt lat="45.7635" lon="4.82603">
        <ele>212</ele>
        <time>2016-09-21T05:42:31Z</time>
      </trkpt>
      <trkpt lat="45.76327" lon="4.82587">
        <ele>213</ele>
        <time>2016-09-21T05:42:49Z</time>
      </trkpt>
      <trkpt lat="45.76316" lon="4.82572">
        <ele>215</ele>
        <time>2016-09-21T05:43:00Z</time>
      </trkpt>
      <trkpt lat="45.76311" lon="4.82567">
        <ele>215</ele>
        <time>2016-09-21T05:43:04Z</time>
      </trkpt>
      <trkpt lat="45.7629" lon="4.82546">
        <ele>216</ele>
        <time>2016-09-21T05:43:24Z</time>
      </trkpt>
      <trkpt lat="45.76285" lon="4.82543">
        <ele>219</ele>
        <time>2016-09-21T05:43:26Z</time>
      </trkpt>
      <trkpt lat="45.76265" lon="4.82507">
        <ele>220</ele>
        <time>2016-09-21T05:43:46Z</time>
      </trkpt>
      <trkpt lat="45.76263" lon="4.82505">
        <ele>220</ele>
        <time>2016-09-21T05:43:48Z</time>
      </trkpt>
      <trkpt lat="45.76227" lon="4.82482">
        <ele>224</ele>
        <time>2016-09-21T05:44:10Z</time>
      </trkpt>
      <trkpt lat="45.76226" lon="4.82481">
        <ele>223</ele>
        <time>2016-09-21T05:44:11Z</time>
      </trkpt>
      <trkpt lat="45.76212" lon="4.82461">
        <ele>228</ele>
        <time>2016-09-21T05:44:23Z</time>
      </trkpt>
      <trkpt lat="45.7621" lon="4.82436">
        <ele>225</ele>
        <time>2016-09-21T05:44:33Z</time>
      </trkpt>
      <trkpt lat="45.76189" lon="4.82423">
        <ele>234</ele>
        <time>2016-09-21T05:44:50Z</time>
      </trkpt>
      <trkpt lat="45.76172" lon="4.82417">
        <ele>243</ele>
        <time>2016-09-21T05:45:00Z</time>
      </trkpt>
      <trkpt lat="45.76168" lon="4.82406">
        <ele>244</ele>
        <time>2016-09-21T05:45:08Z</time>
      </trkpt>
      <trkpt lat="45.76153" lon="4.82407">
        <ele>249</ele>
        <time>2016-09-21T05:45:18Z</time>
      </trkpt>
      <trkpt lat="45.76113" lon="4.82403">
        <ele>252</ele>
        <time>2016-09-21T05:45:37Z</time>
      </trkpt>
      <trkpt lat="45.76109" lon="4.82402">
        <ele>250</ele>
        <time>2016-09-21T05:45:40Z</time>
      </trkpt>
      <trkpt lat="45.76095" lon="4.82397">
        <ele>247</ele>
        <time>2016-09-21T05:45:51Z</time>
      </trkpt>
      <trkpt lat="45.76061" lon="4.8238">
        <ele>248</ele>
        <time>2016-09-21T05:46:13Z</time>
      </trkpt>
      <trkpt lat="45.7606" lon="4.8238">
        <ele>248</ele>
        <time>2016-09-21T05:46:14Z</time>
      </trkpt>
      <trkpt lat="45.76043" lon="4.82379">
        <ele>244</ele>
        <time>2016-09-21T05:46:27Z</time>
      </trkpt>
      <trkpt lat="45.76024" lon="4.82333">
        <ele>246</ele>
        <time>2016-09-21T05:46:50Z</time>
      </trkpt>
      <trkpt lat="45.76012" lon="4.82302">
        <ele>266</ele>
        <time>2016-09-21T05:47:01Z</time>
      </trkpt>
      <trkpt lat="45.76014" lon="4.82287">
        <ele>266</ele>
        <time>2016-09-21T05:47:08Z</time>
      </trkpt>
      <trkpt lat="45.76019" lon="4.82285">
        <ele>262</ele>
        <time>2016-09-21T05:47:13Z</time>
      </trkpt>
      <trkpt lat="45.76023" lon="4.82272">
        <ele>273</ele>
        <time>2016-09-21T05:47:31Z</time>
      </trkpt>
      <trkpt lat="45.76026" lon="4.82254">
        <ele>271</ele>
        <time>2016-09-21T05:47:43Z</time>
      </trkpt>
      <trkpt lat="45.76026" lon="4.82247">
        <ele>273</ele>
        <time>2016-09-21T05:47:46Z</time>
      </trkpt>
      <trkpt lat="45.76031" lon="4.82221">
        <ele>274</ele>
        <time>2016-09-21T05:47:57Z</time>
      </trkpt>
      <trkpt lat="45.76036" lon="4.822">
        <ele>274</ele>
        <time>2016-09-21T05:48:08Z</time>
      </trkpt>
      <trkpt lat="45.7606" lon="4.82187">
        <ele>280</ele>
        <time>2016-09-21T05:48:29Z</time>
      </trkpt>
      <trkpt lat="45.7606" lon="4.82187">
        <ele>280</ele>
        <time>2016-09-21T05:48:30Z</time>
      </trkpt>
      <trkpt lat="45.7609" lon="4.82207">
        <ele>283</ele>
        <time>2016-09-21T05:48:48Z</time>
      </trkpt>
      <trkpt lat="45.76098" lon="4.82206">
        <ele>283</ele>
        <time>2016-09-21T05:49:01Z</time>
      </trkpt>
      <trkpt lat="45.76097" lon="4.82201">
        <ele>279</ele>
        <time>2016-09-21T05:49:03Z</time>
      </trkpt>
      <trkpt lat="45.76136" lon="4.82229">
        <ele>279</ele>
        <time>2016-09-21T05:49:21Z</time>
      </trkpt>
      <trkpt lat="45.76144" lon="4.82219">
        <ele>288</ele>
        <time>2016-09-21T05:49:26Z</time>
      </trkpt>
      <trkpt lat="45.7617" lon="4.82187">
        <ele>300</ele>
        <time>2016-09-21T05:49:44Z</time>
      </trkpt>
      <trkpt lat="45.76186" lon="4.82209">
        <ele>302</ele>
        <time>2016-09-21T05:49:55Z</time>
      </trkpt>
      <trkpt lat="45.76202" lon="4.8219">
        <ele>301</ele>
        <time>2016-09-21T05:50:07Z</time>
      </trkpt>
      <trkpt lat="45.76204" lon="4.82185">
        <ele>298</ele>
        <time>2016-09-21T05:50:09Z</time>
      </trkpt>
      <trkpt lat="45.76219" lon="4.82159">
        <ele>299</ele>
        <time>2016-09-21T05:50:26Z</time>
      </trkpt>
      <trkpt lat="45.76228" lon="4.82159">
        <ele>303</ele>
        <time>2016-09-21T05:50:31Z</time>
      </trkpt>
      <trkpt lat="45.76248" lon="4.82161">
        <ele>302</ele>
        <time>2016-09-21T05:50:42Z</time>
      </trkpt>
      <trkpt lat="45.76273" lon="4.82196">
        <ele>293</ele>
        <time>2016-09-21T05:51:02Z</time>
      </trkpt>
      <trkpt lat="45.76273" lon="4.822">
        <ele>292</ele>
        <time>2016-09-21T05:51:04Z</time>
      </trkpt>
      <trkpt lat="45.76294" lon="4.82212">
        <ele>289</ele>
        <time>2016-09-21T05:51:23Z</time>
      </trkpt>
      <trkpt lat="45.76298" lon="4.82213">
        <ele>289</ele>
        <time>2016-09-21T05:51:26Z</time>
      </trkpt>
      <trkpt lat="45.7632" lon="4.82214">
        <ele>291</ele>
        <time>2016-09-21T05:51:38Z</time>
      </trkpt>
      <trkpt lat="45.76337" lon="4.82215">
        <ele>289</ele>
        <time>2016-09-21T05:51:48Z</time>
      </trkpt>
      <trkpt lat="45.76359" lon="4.82211">
        <ele>296</ele>
        <time>2016-09-21T05:52:02Z</time>
      </trkpt>
      <trkpt lat="45.76356" lon="4.82179">
        <ele>295</ele>
        <time>2016-09-21T05:52:14Z</time>
      </trkpt>
      <trkpt lat="45.76347" lon="4.82161">
        <ele>293</ele>
        <time>2016-09-21T05:52:22Z</time>
      </trkpt>
      <trkpt lat="45.76324" lon="4.82141">
        <ele>290</ele>
        <time>2016-09-21T05:52:37Z</time>
      </trkpt>
      <trkpt lat="45.7632" lon="4.82128">
        <ele>290</ele>
        <time>2016-09-21T05:52:43Z</time>
      </trkpt>
      <trkpt lat="45.76315" lon="4.82102">
        <ele>290</ele>
        <time>2016-09-21T05:52:54Z</time>
      </trkpt>
      <trkpt lat="45.76304" lon="4.82077">
        <ele>286</ele>
        <time>2016-09-21T05:53:06Z</time>
      </trkpt>
      <trkpt lat="45.76301" lon="4.82052">
        <ele>286</ele>
        <time>2016-09-21T05:53:16Z</time>
      </trkpt>
      <trkpt lat="45.76292" lon="4.82028">
        <ele>290</ele>
        <time>2016-09-21T05:53:27Z</time>
      </trkpt>
      <trkpt lat="45.76289" lon="4.82002">
        <ele>287</ele>
        <time>2016-09-21T05:53:38Z</time>
      </trkpt>
      <trkpt lat="45.763" lon="4.81963">
        <ele>281</ele>
        <time>2016-09-21T05:53:55Z</time>
      </trkpt>
      <trkpt lat="45.76305" lon="4.81952">
        <ele>280</ele>
        <time>2016-09-21T05:54:00Z</time>
      </trkpt>
      <trkpt lat="45.76313" lon="4.81927">
        <ele>283</ele>
        <time>2016-09-21T05:54:11Z</time>
      </trkpt>
      <trkpt lat="45.76323" lon="4.81893">
        <ele>282</ele>
        <time>2016-09-21T05:54:26Z</time>
      </trkpt>
      <trkpt lat="45.76328" lon="4.81877">
        <ele>282</ele>
        <time>2016-09-21T05:54:34Z</time>
      </trkpt>
      <trkpt lat="45.76331" lon="4.81855">
        <ele>277</ele>
        <time>2016-09-21T05:54:44Z</time>
      </trkpt>
      <trkpt lat="45.76329" lon="4.81821">
        <ele>281</ele>
        <time>2016-09-21T05:54:58Z</time>
      </trkpt>
      <trkpt lat="45.76327" lon="4.81802">
        <ele>283</ele>
        <time>2016-09-21T05:55:06Z</time>
      </trkpt>
      <trkpt lat="45.76318" lon="4.81761">
        <ele>281</ele>
        <time>2016-09-21T05:55:25Z</time>
      </trkpt>
      <trkpt lat="45.76338" lon="4.81738">
        <ele>282</ele>
        <time>2016-09-21T05:55:34Z</time>
      </trkpt>
      <trkpt lat="45.76328" lon="4.8171">
        <ele>285</ele>
        <time>2016-09-21T05:55:45Z</time>
      </trkpt>
      <trkpt lat="45.76315" lon="4.81684">
        <ele>286</ele>
        <time>2016-09-21T05:55:57Z</time>
      </trkpt>
      <trkpt lat="45.76314" lon="4.81675">
        <ele>288</ele>
        <time>2016-09-21T05:56:01Z</time>
      </trkpt>
      <trkpt lat="45.76304" lon="4.81651">
        <ele>287</ele>
        <time>2016-09-21T05:56:12Z</time>
      </trkpt>
      <trkpt lat="45.76303" lon="4.81608">
        <ele>286</ele>
        <time>2016-09-21T05:56:30Z</time>
      </trkpt>
      <trkpt lat="45.76304" lon="4.81598">
        <ele>286</ele>
        <time>2016-09-21T05:56:34Z</time>
      </trkpt>
      <trkpt lat="45.76299" lon="4.81564">
        <ele>284</ele>
        <time>2016-09-21T05:56:49Z</time>
      </trkpt>
      <trkpt lat="45.76302" lon="4.8155">
        <ele>284</ele>
        <time>2016-09-21T05:56:56Z</time>
      </trkpt>
      <trkpt lat="45.76294" lon="4.81521">
        <ele>286</ele>
        <time>2016-09-21T05:57:08Z</time>
      </trkpt>
      <trkpt lat="45.76296" lon="4.81481">
        <ele>287</ele>
        <time>2016-09-21T05:57:27Z</time>
      </trkpt>
      <trkpt lat="45.76293" lon="4.81475">
        <ele>285</ele>
        <time>2016-09-21T05:57:30Z</time>
      </trkpt>
      <trkpt lat="45.76294" lon="4.81451">
        <ele>284</ele>
        <time>2016-09-21T05:57:41Z</time>
      </trkpt>
      <trkpt lat="45.763" lon="4.81407">
        <ele>291</ele>
        <time>2016-09-21T05:58:01Z</time>
      </trkpt>
      <trkpt lat="45.76296" lon="4.81389">
        <ele>292</ele>
        <time>2016-09-21T05:58:09Z</time>
      </trkpt>
      <trkpt lat="45.76293" lon="4.8137">
        <ele>289</ele>
        <time>2016-09-21T05:58:17Z</time>
      </trkpt>
      <trkpt lat="45.76291" lon="4.81351">
        <ele>289</ele>
        <time>2016-09-21T05:58:25Z</time>
      </trkpt>
      <trkpt lat="45.76305" lon="4.81334">
        <ele>286</ele>
        <time>2016-09-21T05:58:35Z</time>
      </trkpt>
      <trkpt lat="45.76333" lon="4.81323">
        <ele>282</ele>
        <time>2016-09-21T05:58:53Z</time>
      </trkpt>
      <trkpt lat="45.7634" lon="4.81326">
        <ele>286</ele>
        <time>2016-09-21T05:58:58Z</time>
      </trkpt>
      <trkpt lat="45.76364" lon="4.81327">
        <ele>288</ele>
        <time>2016-09-21T05:59:11Z</time>
      </trkpt>
      <trkpt lat="45.76384" lon="4.81312">
        <ele>285</ele>
        <time>2016-09-21T05:59:26Z</time>
      </trkpt>
      <trkpt lat="45.76388" lon="4.81304">
        <ele>284</ele>
        <time>2016-09-21T05:59:30Z</time>
      </trkpt>
      <trkpt lat="45.76402" lon="4.8129">
        <ele>281</ele>
        <time>2016-09-21T05:59:41Z</time>
      </trkpt>
      <trkpt lat="45.76427" lon="4.81268">
        <ele>276</ele>
        <time>2016-09-21T05:59:59Z</time>
      </trkpt>
      <trkpt lat="45.76432" lon="4.81261">
        <ele>276</ele>
        <time>2016-09-21T06:00:03Z</time>
      </trkpt>
      <trkpt lat="45.76444" lon="4.81241">
        <ele>278</ele>
        <time>2016-09-21T06:00:14Z</time>
      </trkpt>
      <trkpt lat="45.76459" lon="4.81198">
        <ele>278</ele>
        <time>2016-09-21T06:00:33Z</time>
      </trkpt>
      <trkpt lat="45.76475" lon="4.81192">
        <ele>277</ele>
        <time>2016-09-21T06:00:41Z</time>
      </trkpt>
      <trkpt lat="45.76483" lon="4.81182">
        <ele>275</ele>
        <time>2016-09-21T06:00:47Z</time>
      </trkpt>
      <trkpt lat="45.76488" lon="4.81161">
        <ele>269</ele>
        <time>2016-09-21T06:00:58Z</time>
      </trkpt>
      <trkpt lat="45.765" lon="4.81126">
        <ele>277</ele>
        <time>2016-09-21T06:01:14Z</time>
      </trkpt>
      <trkpt lat="45.76502" lon="4.81109">
        <ele>276</ele>
        <time>2016-09-21T06:01:20Z</time>
      </trkpt>
      <trkpt lat="45.76513" lon="4.81079">
        <ele>274</ele>
        <time>2016-09-21T06:01:32Z</time>
      </trkpt>
      <trkpt lat="45.76511" lon="4.81049">
        <ele>271</ele>
        <time>2016-09-21T06:01:42Z</time>
      </trkpt>
      <trkpt lat="45.76531" lon="4.81041">
        <ele>271</ele>
        <time>2016-09-21T06:01:53Z</time>
      </trkpt>
      <trkpt lat="45.76567" lon="4.81021">
        <ele>281</ele>
        <time>2016-09-21T06:02:13Z</time>
      </trkpt>
      <trkpt lat="45.76576" lon="4.81022">
        <ele>280</ele>
        <time>2016-09-21T06:02:16Z</time>
      </trkpt>
      <trkpt lat="45.76588" lon="4.80999">
        <ele>280</ele>
        <time>2016-09-21T06:02:28Z</time>
      </trkpt>
      <trkpt lat="45.76603" lon="4.80987">
        <ele>283</ele>
        <time>2016-09-21T06:02:38Z</time>
      </trkpt>
      <trkpt lat="45.7662" lon="4.80952">
        <ele>280</ele>
        <time>2016-09-21T06:02:59Z</time>
      </trkpt>
      <trkpt lat="45.76636" lon="4.80954">
        <ele>281</ele>
        <time>2016-09-21T06:03:05Z</time>
      </trkpt>
      <trkpt lat="45.7666" lon="4.8095">
        <ele>275</ele>
        <time>2016-09-21T06:03:18Z</time>
      </trkpt>
      <trkpt lat="45.76664" lon="4.80942">
        <ele>272</ele>
        <time>2016-09-21T06:03:23Z</time>
      </trkpt>
      <trkpt lat="45.76695" lon="4.80935">
        <ele>263</ele>
        <time>2016-09-21T06:03:40Z</time>
      </trkpt>
      <trkpt lat="45.76702" lon="4.80938">
        <ele>262</ele>
        <time>2016-09-21T06:03:44Z</time>
      </trkpt>
      <trkpt lat="45.76723" lon="4.80937">
        <ele>263</ele>
        <time>2016-09-21T06:04:00Z</time>
      </trkpt>
      <trkpt lat="45.76742" lon="4.80948">
        <ele>254</ele>
        <time>2016-09-21T06:04:11Z</time>
      </trkpt>
      <trkpt lat="45.76752" lon="4.80952">
        <ele>251</ele>
        <time>2016-09-21T06:04:17Z</time>
      </trkpt>
      <trkpt lat="45.7679" lon="4.8095">
        <ele>250</ele>
        <time>2016-09-21T06:04:32Z</time>
      </trkpt>
      <trkpt lat="45.76804" lon="4.80955">
        <ele>244</ele>
        <time>2016-09-21T06:04:46Z</time>
      </trkpt>
      <trkpt lat="45.76816" lon="4.80956">
        <ele>247</ele>
        <time>2016-09-21T06:04:53Z</time>
      </trkpt>
      <trkpt lat="45.76831" lon="4.80969">
        <ele>244</ele>
        <time>2016-09-21T06:05:06Z</time>
      </trkpt>
      <trkpt lat="45.76826" lon="4.80987">
        <ele>241</ele>
        <time>2016-09-21T06:05:12Z</time>
      </trkpt>
      <trkpt lat="45.76808" lon="4.81001">
        <ele>241</ele>
        <time>2016-09-21T06:05:23Z</time>
      </trkpt>
      <trkpt lat="45.76787" lon="4.81008">
        <ele>241</ele>
        <time>2016-09-21T06:05:34Z</time>
      </trkpt>
      <trkpt lat="45.7676" lon="4.81026">
        <ele>235</ele>
        <time>2016-09-21T06:05:54Z</time>
      </trkpt>
      <trkpt lat="45.7675" lon="4.81027">
        <ele>230</ele>
        <time>2016-09-21T06:06:02Z</time>
      </trkpt>
      <trkpt lat="45.7672" lon="4.81037">
        <ele>222</ele>
        <time>2016-09-21T06:06:18Z</time>
      </trkpt>
      <trkpt lat="45.76718" lon="4.81039">
        <ele>221</ele>
        <time>2016-09-21T06:06:19Z</time>
      </trkpt>
      <trkpt lat="45.76738" lon="4.81042">
        <ele>231</ele>
        <time>2016-09-21T06:06:38Z</time>
      </trkpt>
      <trkpt lat="45.76742" lon="4.81042">
        <ele>230</ele>
        <time>2016-09-21T06:06:41Z</time>
      </trkpt>
      <trkpt lat="45.76748" lon="4.81064">
        <ele>224</ele>
        <time>2016-09-21T06:06:54Z</time>
      </trkpt>
      <trkpt lat="45.76741" lon="4.81084">
        <ele>225</ele>
        <time>2016-09-21T06:07:03Z</time>
      </trkpt>
      <trkpt lat="45.76714" lon="4.81101">
        <ele>221</ele>
        <time>2016-09-21T06:07:14Z</time>
      </trkpt>
      <trkpt lat="45.76683" lon="4.81198">
        <ele>227</ele>
        <time>2016-09-21T06:08:05Z</time>
      </trkpt>
      <trkpt lat="45.76716" lon="4.81182">
        <ele>217</ele>
        <time>2016-09-21T06:08:26Z</time>
      </trkpt>
      <trkpt lat="45.76727" lon="4.81157">
        <ele>211</ele>
        <time>2016-09-21T06:08:37Z</time>
      </trkpt>
      <trkpt lat="45.76725" lon="4.81145">
        <ele>210</ele>
        <time>2016-09-21T06:08:42Z</time>
      </trkpt>
      <trkpt lat="45.76832" lon="4.811">
        <ele>203</ele>
        <time>2016-09-21T06:09:52Z</time>
      </trkpt>
      <trkpt lat="45.76836" lon="4.81117">
        <ele>186</ele>
        <time>2016-09-21T06:10:02Z</time>
      </trkpt>
      <trkpt lat="45.76837" lon="4.81124">
        <ele>190</ele>
        <time>2016-09-21T06:10:04Z</time>
      </trkpt>
      <trkpt lat="45.76833" lon="4.81149">
        <ele>192</ele>
        <time>2016-09-21T06:10:15Z</time>
      </trkpt>
      <trkpt lat="45.76804" lon="4.81165">
        <ele>190</ele>
        <time>2016-09-21T06:10:33Z</time>
      </trkpt>
      <trkpt lat="45.76802" lon="4.8117">
        <ele>191</ele>
        <time>2016-09-21T06:10:37Z</time>
      </trkpt>
      <trkpt lat="45.76733" lon="4.8122">
        <ele>184</ele>
        <time>2016-09-21T06:11:15Z</time>
      </trkpt>
      <trkpt lat="45.76733" lon="4.81228">
        <ele>182</ele>
        <time>2016-09-21T06:11:18Z</time>
      </trkpt>
      <trkpt lat="45.76741" lon="4.81272">
        <ele>177</ele>
        <time>2016-09-21T06:11:37Z</time>
      </trkpt>
      <trkpt lat="45.76745" lon="4.81281">
        <ele>177</ele>
        <time>2016-09-21T06:11:41Z</time>
      </trkpt>
      <trkpt lat="45.76757" lon="4.81293">
        <ele>177</ele>
        <time>2016-09-21T06:11:49Z</time>
      </trkpt>
      <trkpt lat="45.76804" lon="4.81297">
        <ele>185</ele>
        <time>2016-09-21T06:12:05Z</time>
      </trkpt>
      <trkpt lat="45.76808" lon="4.81293">
        <ele>181</ele>
        <time>2016-09-21T06:12:12Z</time>
      </trkpt>
      <trkpt lat="45.76814" lon="4.81285">
        <ele>182</ele>
        <time>2016-09-21T06:12:25Z</time>
      </trkpt>
      <trkpt lat="45.76816" lon="4.81281">
        <ele>180</ele>
        <time>2016-09-21T06:12:33Z</time>
      </trkpt>
      <trkpt lat="45.76876" lon="4.8127">
        <ele>179</ele>
        <time>2016-09-21T06:13:07Z</time>
      </trkpt>
      <trkpt lat="45.76906" lon="4.81257">
        <ele>179</ele>
        <time>2016-09-21T06:13:22Z</time>
      </trkpt>
      <trkpt lat="45.76915" lon="4.81255">
        <ele>180</ele>
        <time>2016-09-21T06:13:25Z</time>
      </trkpt>
      <trkpt lat="45.7694" lon="4.81254">
        <ele>182</ele>
        <time>2016-09-21T06:13:36Z</time>
      </trkpt>
      <trkpt lat="45.76955" lon="4.81255">
        <ele>177</ele>
        <time>2016-09-21T06:13:49Z</time>
      </trkpt>
      <trkpt lat="45.76972" lon="4.81243">
        <ele>173</ele>
        <time>2016-09-21T06:14:00Z</time>
      </trkpt>
      <trkpt lat="45.77126" lon="4.81153">
        <ele>180</ele>
        <time>2016-09-21T06:15:44Z</time>
      </trkpt>
      <trkpt lat="45.77248" lon="4.811">
        <ele>191</ele>
        <time>2016-09-21T06:17:03Z</time>
      </trkpt>
      <trkpt lat="45.7725" lon="4.81084">
        <ele>189</ele>
        <time>2016-09-21T06:17:10Z</time>
      </trkpt>
      <trkpt lat="45.7726" lon="4.81053">
        <ele>188</ele>
        <time>2016-09-21T06:17:25Z</time>
      </trkpt>
      <trkpt lat="45.77262" lon="4.8105">
        <ele>187</ele>
        <time>2016-09-21T06:17:26Z</time>
      </trkpt>
      <trkpt lat="45.77288" lon="4.81043">
        <ele>183</ele>
        <time>2016-09-21T06:17:46Z</time>
      </trkpt>
      <trkpt lat="45.77295" lon="4.81044">
        <ele>183</ele>
        <time>2016-09-21T06:17:50Z</time>
      </trkpt>
      <trkpt lat="45.77304" lon="4.81016">
        <ele>176</ele>
        <time>2016-09-21T06:18:05Z</time>
      </trkpt>
      <trkpt lat="45.77317" lon="4.81005">
        <ele>174</ele>
        <time>2016-09-21T06:18:13Z</time>
      </trkpt>
      <trkpt lat="45.77321" lon="4.80994">
        <ele>176</ele>
        <time>2016-09-21T06:18:21Z</time>
      </trkpt>
      <trkpt lat="45.77333" lon="4.80971">
        <ele>175</ele>
        <time>2016-09-21T06:18:35Z</time>
      </trkpt>
      <trkpt lat="45.77369" lon="4.80955">
        <ele>180</ele>
        <time>2016-09-21T06:18:49Z</time>
      </trkpt>
      <trkpt lat="45.77376" lon="4.8095">
        <ele>180</ele>
        <time>2016-09-21T06:18:54Z</time>
      </trkpt>
      <trkpt lat="45.77386" lon="4.80937">
        <ele>183</ele>
        <time>2016-09-21T06:19:05Z</time>
      </trkpt>
      <trkpt lat="45.77408" lon="4.80921">
        <ele>178</ele>
        <time>2016-09-21T06:19:16Z</time>
      </trkpt>
      <trkpt lat="45.77421" lon="4.80897">
        <ele>181</ele>
        <time>2016-09-21T06:19:33Z</time>
      </trkpt>
      <trkpt lat="45.77432" lon="4.80893">
        <ele>181</ele>
        <time>2016-09-21T06:19:38Z</time>
      </trkpt>
      <trkpt lat="45.77452" lon="4.80883">
        <ele>182</ele>
        <time>2016-09-21T06:19:49Z</time>
      </trkpt>
      <trkpt lat="45.77471" lon="4.8088">
        <ele>178</ele>
        <time>2016-09-21T06:20:10Z</time>
      </trkpt>
      <trkpt lat="45.7747" lon="4.80899">
        <ele>175</ele>
        <time>2016-09-21T06:20:18Z</time>
      </trkpt>
      <trkpt lat="45.77471" lon="4.80909">
        <ele>176</ele>
        <time>2016-09-21T06:20:22Z</time>
      </trkpt>
      <trkpt lat="45.77471" lon="4.80938">
        <ele>178</ele>
        <time>2016-09-21T06:20:33Z</time>
      </trkpt>
      <trkpt lat="45.77469" lon="4.80972">
        <ele>177</ele>
        <time>2016-09-21T06:20:47Z</time>
      </trkpt>
      <trkpt lat="45.77466" lon="4.81008">
        <ele>177</ele>
        <time>2016-09-21T06:21:02Z</time>
      </trkpt>
      <trkpt lat="45.77465" lon="4.81018">
        <ele>176</ele>
        <time>2016-09-21T06:21:06Z</time>
      </trkpt>
      <trkpt lat="45.77465" lon="4.8105">
        <ele>175</ele>
        <time>2016-09-21T06:21:19Z</time>
      </trkpt>
      <trkpt lat="45.77463" lon="4.81096">
        <ele>173</ele>
        <time>2016-09-21T06:21:39Z</time>
      </trkpt>
      <trkpt lat="45.77457" lon="4.8112">
        <ele>173</ele>
        <time>2016-09-21T06:21:50Z</time>
      </trkpt>
      <trkpt lat="45.77457" lon="4.81122">
        <ele>173</ele>
        <time>2016-09-21T06:21:51Z</time>
      </trkpt>
      <trkpt lat="45.77454" lon="4.81154">
        <ele>175</ele>
        <time>2016-09-21T06:22:04Z</time>
      </trkpt>
      <trkpt lat="45.77451" lon="4.81178">
        <ele>174</ele>
        <time>2016-09-21T06:22:14Z</time>
      </trkpt>
      <trkpt lat="45.7745" lon="4.81219">
        <ele>173</ele>
        <time>2016-09-21T06:22:32Z</time>
      </trkpt>
      <trkpt lat="45.77448" lon="4.81225">
        <ele>172</ele>
        <time>2016-09-21T06:22:35Z</time>
      </trkpt>
      <trkpt lat="45.77446" lon="4.8125">
        <ele>171</ele>
        <time>2016-09-21T06:22:46Z</time>
      </trkpt>
      <trkpt lat="45.77419" lon="4.81269">
        <ele>172</ele>
        <time>2016-09-21T06:23:06Z</time>
      </trkpt>
      <trkpt lat="45.77408" lon="4.81294">
        <ele>174</ele>
        <time>2016-09-21T06:23:18Z</time>
      </trkpt>
      <trkpt lat="45.77409" lon="4.81296">
        <ele>173</ele>
        <time>2016-09-21T06:23:19Z</time>
      </trkpt>
      <trkpt lat="45.7741" lon="4.81321">
        <ele>169</ele>
        <time>2016-09-21T06:23:30Z</time>
      </trkpt>
      <trkpt lat="45.77404" lon="4.81345">
        <ele>172</ele>
        <time>2016-09-21T06:23:41Z</time>
      </trkpt>
      <trkpt lat="45.77402" lon="4.81372">
        <ele>172</ele>
        <time>2016-09-21T06:23:52Z</time>
      </trkpt>
      <trkpt lat="45.77404" lon="4.81396">
        <ele>173</ele>
        <time>2016-09-21T06:24:03Z</time>
      </trkpt>
      <trkpt lat="45.77267" lon="4.81478">
        <ele>185</ele>
        <time>2016-09-21T06:25:07Z</time>
      </trkpt>
      <trkpt lat="45.77285" lon="4.81546">
        <ele>194</ele>
        <time>2016-09-21T06:26:10Z</time>
      </trkpt>
      <trkpt lat="45.77283" lon="4.81555">
        <ele>197</ele>
        <time>2016-09-21T06:26:19Z</time>
      </trkpt>
      <trkpt lat="45.7728" lon="4.81556">
        <ele>198</ele>
        <time>2016-09-21T06:26:26Z</time>
      </trkpt>
      <trkpt lat="45.77286" lon="4.81558">
        <ele>200</ele>
        <time>2016-09-21T06:26:34Z</time>
      </trkpt>
      <trkpt lat="45.7728" lon="4.81567">
        <ele>206</ele>
        <time>2016-09-21T06:26:49Z</time>
      </trkpt>
      <trkpt lat="45.77283" lon="4.81568">
        <ele>204</ele>
        <time>2016-09-21T06:26:56Z</time>
      </trkpt>
      <trkpt lat="45.77298" lon="4.81586">
        <ele>203</ele>
        <time>2016-09-21T06:27:17Z</time>
      </trkpt>
      <trkpt lat="45.77225" lon="4.81576">
        <ele>226</ele>
        <time>2016-09-21T06:27:40Z</time>
      </trkpt>
      <trkpt lat="45.77187" lon="4.81579">
        <ele>233</ele>
        <time>2016-09-21T06:27:59Z</time>
      </trkpt>
      <trkpt lat="45.77179" lon="4.81583">
        <ele>231</ele>
        <time>2016-09-21T06:28:03Z</time>
      </trkpt>
      <trkpt lat="45.77189" lon="4.8162">
        <ele>223</ele>
        <time>2016-09-21T06:28:24Z</time>
      </trkpt>
      <trkpt lat="45.77192" lon="4.81621">
        <ele>220</ele>
        <time>2016-09-21T06:28:25Z</time>
      </trkpt>
      <trkpt lat="45.77234" lon="4.81619">
        <ele>215</ele>
        <time>2016-09-21T06:28:44Z</time>
      </trkpt>
      <trkpt lat="45.77237" lon="4.81618">
        <ele>212</ele>
        <time>2016-09-21T06:28:49Z</time>
      </trkpt>
      <trkpt lat="45.77262" lon="4.81624">
        <ele>217</ele>
        <time>2016-09-21T06:29:00Z</time>
      </trkpt>
      <trkpt lat="45.77278" lon="4.81627">
        <ele>214</ele>
        <time>2016-09-21T06:29:09Z</time>
      </trkpt>
      <trkpt lat="45.77299" lon="4.81659">
        <ele>220</ele>
        <time>2016-09-21T06:29:30Z</time>
      </trkpt>
      <trkpt lat="45.77298" lon="4.81661">
        <ele>221</ele>
        <time>2016-09-21T06:29:31Z</time>
      </trkpt>
      <trkpt lat="45.77267" lon="4.81693">
        <ele>227</ele>
        <time>2016-09-21T06:29:52Z</time>
      </trkpt>
      <trkpt lat="45.77262" lon="4.81697">
        <ele>229</ele>
        <time>2016-09-21T06:29:54Z</time>
      </trkpt>
      <trkpt lat="45.77198" lon="4.81761">
        <ele>249</ele>
        <time>2016-09-21T06:30:34Z</time>
      </trkpt>
      <trkpt lat="45.77216" lon="4.81789">
        <ele>241</ele>
        <time>2016-09-21T06:30:45Z</time>
      </trkpt>
      <trkpt lat="45.77217" lon="4.81821">
        <ele>243</ele>
        <time>2016-09-21T06:30:57Z</time>
      </trkpt>
      <trkpt lat="45.77218" lon="4.81828">
        <ele>241</ele>
        <time>2016-09-21T06:31:00Z</time>
      </trkpt>
      <trkpt lat="45.77225" lon="4.81851">
        <ele>240</ele>
        <time>2016-09-21T06:31:10Z</time>
      </trkpt>
      <trkpt lat="45.77234" lon="4.81877">
        <ele>241</ele>
        <time>2016-09-21T06:31:21Z</time>
      </trkpt>
      <trkpt lat="45.77249" lon="4.81906">
        <ele>230</ele>
        <time>2016-09-21T06:31:35Z</time>
      </trkpt>
      <trkpt lat="45.77254" lon="4.81934">
        <ele>229</ele>
        <time>2016-09-21T06:31:49Z</time>
      </trkpt>
      <trkpt lat="45.77259" lon="4.81948">
        <ele>235</ele>
        <time>2016-09-21T06:31:57Z</time>
      </trkpt>
      <trkpt lat="45.77275" lon="4.81972">
        <ele>234</ele>
        <time>2016-09-21T06:32:07Z</time>
      </trkpt>
      <trkpt lat="45.77284" lon="4.81991">
        <ele>238</ele>
        <time>2016-09-21T06:32:16Z</time>
      </trkpt>
      <trkpt lat="45.77298" lon="4.82026">
        <ele>243</ele>
        <time>2016-09-21T06:32:32Z</time>
      </trkpt>
      <trkpt lat="45.77297" lon="4.82039">
        <ele>248</ele>
        <time>2016-09-21T06:32:38Z</time>
      </trkpt>
      <trkpt lat="45.77297" lon="4.82067">
        <ele>247</ele>
        <time>2016-09-21T06:32:50Z</time>
      </trkpt>
      <trkpt lat="45.773" lon="4.82095">
        <ele>243</ele>
        <time>2016-09-21T06:33:03Z</time>
      </trkpt>
      <trkpt lat="45.7731" lon="4.82127">
        <ele>243</ele>
        <time>2016-09-21T06:33:19Z</time>
      </trkpt>
      <trkpt lat="45.77317" lon="4.8214">
        <ele>244</ele>
        <time>2016-09-21T06:33:25Z</time>
      </trkpt>
      <trkpt lat="45.77323" lon="4.8216">
        <ele>245</ele>
        <time>2016-09-21T06:33:34Z</time>
      </trkpt>
      <trkpt lat="45.7733" lon="4.82193">
        <ele>244</ele>
        <time>2016-09-21T06:33:49Z</time>
      </trkpt>
      <trkpt lat="45.77333" lon="4.82215">
        <ele>245</ele>
        <time>2016-09-21T06:33:58Z</time>
      </trkpt>
      <trkpt lat="45.77341" lon="4.82232">
        <ele>250</ele>
        <time>2016-09-21T06:34:07Z</time>
      </trkpt>
      <trkpt lat="45.77352" lon="4.82274">
        <ele>254</ele>
        <time>2016-09-21T06:34:27Z</time>
      </trkpt>
      <trkpt lat="45.77354" lon="4.82279">
        <ele>256</ele>
        <time>2016-09-21T06:34:29Z</time>
      </trkpt>
      <trkpt lat="45.77366" lon="4.82302">
        <ele>253</ele>
        <time>2016-09-21T06:34:40Z</time>
      </trkpt>
      <trkpt lat="45.77377" lon="4.82326">
        <ele>253</ele>
        <time>2016-09-21T06:34:51Z</time>
      </trkpt>
      <trkpt lat="45.77383" lon="4.82365">
        <ele>259</ele>
        <time>2016-09-21T06:35:10Z</time>
      </trkpt>
      <trkpt lat="45.7739" lon="4.82383">
        <ele>256</ele>
        <time>2016-09-21T06:35:16Z</time>
      </trkpt>
      <trkpt lat="45.77395" lon="4.82403">
        <ele>252</ele>
        <time>2016-09-21T06:35:24Z</time>
      </trkpt>
      <trkpt lat="45.77398" lon="4.82438">
        <ele>249</ele>
        <time>2016-09-21T06:35:39Z</time>
      </trkpt>
      <trkpt lat="45.77395" lon="4.82471">
        <ele>252</ele>
        <time>2016-09-21T06:35:54Z</time>
      </trkpt>
      <trkpt lat="45.77398" lon="4.8248">
        <ele>250</ele>
        <time>2016-09-21T06:35:58Z</time>
      </trkpt>
      <trkpt lat="45.77398" lon="4.82508">
        <ele>253</ele>
        <time>2016-09-21T06:36:09Z</time>
      </trkpt>
      <trkpt lat="45.77401" lon="4.82531">
        <ele>251</ele>
        <time>2016-09-21T06:36:19Z</time>
      </trkpt>
      <trkpt lat="45.77411" lon="4.82562">
        <ele>250</ele>
        <time>2016-09-21T06:36:31Z</time>
      </trkpt>
      <trkpt lat="45.77411" lon="4.82605">
        <ele>249</ele>
        <time>2016-09-21T06:36:51Z</time>
      </trkpt>
      <trkpt lat="45.77412" lon="4.82614">
        <ele>250</ele>
        <time>2016-09-21T06:36:55Z</time>
      </trkpt>
      <trkpt lat="45.77412" lon="4.82636">
        <ele>250</ele>
        <time>2016-09-21T06:37:06Z</time>
      </trkpt>
      <trkpt lat="45.77416" lon="4.8266">
        <ele>249</ele>
        <time>2016-09-21T06:37:15Z</time>
      </trkpt>
      <trkpt lat="45.77425" lon="4.82711">
        <ele>254</ele>
        <time>2016-09-21T06:37:34Z</time>
      </trkpt>
      <trkpt lat="45.77423" lon="4.82722">
        <ele>255</ele>
        <time>2016-09-21T06:37:39Z</time>
      </trkpt>
      <trkpt lat="45.77416" lon="4.82741">
        <ele>258</ele>
        <time>2016-09-21T06:37:48Z</time>
      </trkpt>
      <trkpt lat="45.77422" lon="4.82766">
        <ele>258</ele>
        <time>2016-09-21T06:37:59Z</time>
      </trkpt>
      <trkpt lat="45.77426" lon="4.82801">
        <ele>250</ele>
        <time>2016-09-21T06:38:14Z</time>
      </trkpt>
      <trkpt lat="45.7743" lon="4.82827">
        <ele>248</ele>
        <time>2016-09-21T06:38:25Z</time>
      </trkpt>
      <trkpt lat="45.77428" lon="4.82881">
        <ele>256</ele>
        <time>2016-09-21T06:38:46Z</time>
      </trkpt>
      <trkpt lat="45.77427" lon="4.82885">
        <ele>254</ele>
        <time>2016-09-21T06:38:48Z</time>
      </trkpt>
      <trkpt lat="45.77431" lon="4.82923">
        <ele>257</ele>
        <time>2016-09-21T06:39:04Z</time>
      </trkpt>
      <trkpt lat="45.77432" lon="4.8294">
        <ele>261</ele>
        <time>2016-09-21T06:39:10Z</time>
      </trkpt>
      <trkpt lat="45.77428" lon="4.82964">
        <ele>259</ele>
        <time>2016-09-21T06:39:21Z</time>
      </trkpt>
      <trkpt lat="45.77446" lon="4.83017">
        <ele>245</ele>
        <time>2016-09-21T06:39:42Z</time>
      </trkpt>
      <trkpt lat="45.77447" lon="4.83019">
        <ele>245</ele>
        <time>2016-09-21T06:39:43Z</time>
      </trkpt>
      <trkpt lat="45.77442" lon="4.83043">
        <ele>247</ele>
        <time>2016-09-21T06:39:57Z</time>
      </trkpt>
      <trkpt lat="45.77443" lon="4.83058">
        <ele>249</ele>
        <time>2016-09-21T06:40:05Z</time>
      </trkpt>
      <trkpt lat="45.7745" lon="4.83113">
        <ele>246</ele>
        <time>2016-09-21T06:40:26Z</time>
      </trkpt>
      <trkpt lat="45.77454" lon="4.83143">
        <ele>249</ele>
        <time>2016-09-21T06:40:37Z</time>
      </trkpt>
      <trkpt lat="45.77454" lon="4.83145">
        <ele>249</ele>
        <time>2016-09-21T06:40:38Z</time>
      </trkpt>
      <trkpt lat="45.77455" lon="4.83178">
        <ele>257</ele>
        <time>2016-09-21T06:40:52Z</time>
      </trkpt>
      <trkpt lat="45.7746" lon="4.83214">
        <ele>263</ele>
        <time>2016-09-21T06:41:08Z</time>
      </trkpt>
      <trkpt lat="45.7746" lon="4.83237">
        <ele>258</ele>
        <time>2016-09-21T06:41:18Z</time>
      </trkpt>
      <trkpt lat="45.77465" lon="4.8326">
        <ele>259</ele>
        <time>2016-09-21T06:41:28Z</time>
      </trkpt>
      <trkpt lat="45.77469" lon="4.83272">
        <ele>254</ele>
        <time>2016-09-21T06:41:33Z</time>
      </trkpt>
      <trkpt lat="45.77475" lon="4.83298">
        <ele>250</ele>
        <time>2016-09-21T06:41:44Z</time>
      </trkpt>
      <trkpt lat="45.77471" lon="4.83325">
        <ele>255</ele>
        <time>2016-09-21T06:41:56Z</time>
      </trkpt>
      <trkpt lat="45.77471" lon="4.83349">
        <ele>264</ele>
        <time>2016-09-21T06:42:12Z</time>
      </trkpt>
      <trkpt lat="45.77485" lon="4.83367">
        <ele>261</ele>
        <time>2016-09-21T06:42:20Z</time>
      </trkpt>
      <trkpt lat="45.77503" lon="4.83386">
        <ele>260</ele>
        <time>2016-09-21T06:42:35Z</time>
      </trkpt>
      <trkpt lat="45.77505" lon="4.83396">
        <ele>265</ele>
        <time>2016-09-21T06:42:40Z</time>
      </trkpt>
      <trkpt lat="45.77525" lon="4.83435">
        <ele>266</ele>
        <time>2016-09-21T06:43:01Z</time>
      </trkpt>
      <trkpt lat="45.77525" lon="4.83437">
        <ele>267</ele>
        <time>2016-09-21T06:43:02Z</time>
      </trkpt>
      <trkpt lat="45.7755" lon="4.83471">
        <ele>262</ele>
        <time>2016-09-21T06:43:15Z</time>
      </trkpt>
      <trkpt lat="45.77565" lon="4.83487">
        <ele>253</ele>
        <time>2016-09-21T06:43:25Z</time>
      </trkpt>
      <trkpt lat="45.77539" lon="4.83527">
        <ele>246</ele>
        <time>2016-09-21T06:43:47Z</time>
      </trkpt>
      <trkpt lat="45.77534" lon="4.83536">
        <ele>242</ele>
        <time>2016-09-21T06:43:54Z</time>
      </trkpt>
      <trkpt lat="45.77526" lon="4.8354">
        <ele>248</ele>
        <time>2016-09-21T06:43:59Z</time>
      </trkpt>
      <trkpt lat="45.77511" lon="4.83559">
        <ele>238</ele>
        <time>2016-09-21T06:44:10Z</time>
      </trkpt>
      <trkpt lat="45.77486" lon="4.83582">
        <ele>233</ele>
        <time>2016-09-21T06:44:32Z</time>
      </trkpt>
      <trkpt lat="45.77475" lon="4.83603">
        <ele>239</ele>
        <time>2016-09-21T06:44:42Z</time>
      </trkpt>
      <trkpt lat="45.77456" lon="4.8362">
        <ele>242</ele>
        <time>2016-09-21T06:44:53Z</time>
      </trkpt>
      <trkpt lat="45.77428" lon="4.83623">
        <ele>241</ele>
        <time>2016-09-21T06:45:08Z</time>
      </trkpt>
      <trkpt lat="45.77427" lon="4.83623">
        <ele>241</ele>
        <time>2016-09-21T06:45:09Z</time>
      </trkpt>
      <trkpt lat="45.77412" lon="4.83626">
        <ele>242</ele>
        <time>2016-09-21T06:45:21Z</time>
      </trkpt>
      <trkpt lat="45.77414" lon="4.83625">
        <ele>243</ele>
        <time>2016-09-21T06:45:32Z</time>
      </trkpt>
      <trkpt lat="45.77328" lon="4.83558">
        <ele>242</ele>
        <time>2016-09-21T06:46:26Z</time>
      </trkpt>
      <trkpt lat="45.77313" lon="4.83543">
        <ele>230</ele>
        <time>2016-09-21T06:46:36Z</time>
      </trkpt>
      <trkpt lat="45.77297" lon="4.83548">
        <ele>229</ele>
        <time>2016-09-21T06:46:48Z</time>
      </trkpt>
      <trkpt lat="45.77305" lon="4.8357">
        <ele>229</ele>
        <time>2016-09-21T06:46:59Z</time>
      </trkpt>
      <trkpt lat="45.77317" lon="4.83572">
        <ele>228</ele>
        <time>2016-09-21T06:47:04Z</time>
      </trkpt>
      <trkpt lat="45.77336" lon="4.83582">
        <ele>226</ele>
        <time>2016-09-21T06:47:16Z</time>
      </trkpt>
      <trkpt lat="45.77347" lon="4.83599">
        <ele>223</ele>
        <time>2016-09-21T06:47:26Z</time>
      </trkpt>
      <trkpt lat="45.77354" lon="4.83608">
        <ele>223</ele>
        <time>2016-09-21T06:47:33Z</time>
      </trkpt>
      <trkpt lat="45.7737" lon="4.83624">
        <ele>224</ele>
        <time>2016-09-21T06:47:44Z</time>
      </trkpt>
      <trkpt lat="45.77379" lon="4.83718">
        <ele>217</ele>
        <time>2016-09-21T06:48:40Z</time>
      </trkpt>
      <trkpt lat="45.77369" lon="4.83704">
        <ele>213</ele>
        <time>2016-09-21T06:48:49Z</time>
      </trkpt>
      <trkpt lat="45.77361" lon="4.83696">
        <ele>214</ele>
        <time>2016-09-21T06:48:55Z</time>
      </trkpt>
      <trkpt lat="45.77346" lon="4.83685">
        <ele>212</ele>
        <time>2016-09-21T06:49:06Z</time>
      </trkpt>
      <trkpt lat="45.77332" lon="4.8367">
        <ele>210</ele>
        <time>2016-09-21T06:49:16Z</time>
      </trkpt>
      <trkpt lat="45.77317" lon="4.83659">
        <ele>208</ele>
        <time>2016-09-21T06:49:26Z</time>
      </trkpt>
      <trkpt lat="45.77292" lon="4.83632">
        <ele>208</ele>
        <time>2016-09-21T06:49:47Z</time>
      </trkpt>
      <trkpt lat="45.77288" lon="4.83631">
        <ele>209</ele>
        <time>2016-09-21T06:49:49Z</time>
      </trkpt>
      <trkpt lat="45.77259" lon="4.8362">
        <ele>214</ele>
        <time>2016-09-21T06:50:05Z</time>
      </trkpt>
      <trkpt lat="45.77249" lon="4.8362">
        <ele>213</ele>
        <time>2016-09-21T06:50:11Z</time>
      </trkpt>
      <trkpt lat="45.77242" lon="4.83624">
        <ele>209</ele>
        <time>2016-09-21T06:50:22Z</time>
      </trkpt>
      <trkpt lat="45.77243" lon="4.83628">
        <ele>205</ele>
        <time>2016-09-21T06:50:38Z</time>
      </trkpt>
      <trkpt lat="45.77241" lon="4.83629">
        <ele>201</ele>
        <time>2016-09-21T06:50:43Z</time>
      </trkpt>
      <trkpt lat="45.77243" lon="4.83625">
        <ele>200</ele>
        <time>2016-09-21T06:50:54Z</time>
      </trkpt>
      <trkpt lat="45.77226" lon="4.83623">
        <ele>194</ele>
        <time>2016-09-21T06:51:10Z</time>
      </trkpt>
      <trkpt lat="45.77216" lon="4.83627">
        <ele>193</ele>
        <time>2016-09-21T06:51:16Z</time>
      </trkpt>
      <trkpt lat="45.77216" lon="4.83649">
        <ele>192</ele>
        <time>2016-09-21T06:51:28Z</time>
      </trkpt>
      <trkpt lat="45.77237" lon="4.83706">
        <ele>179</ele>
        <time>2016-09-21T06:52:17Z</time>
      </trkpt>
      <trkpt lat="45.77242" lon="4.83725">
        <ele>179</ele>
        <time>2016-09-21T06:52:30Z</time>
      </trkpt>
      <trkpt lat="45.77246" lon="4.83729">
        <ele>182</ele>
        <time>2016-09-21T06:52:38Z</time>
      </trkpt>
      <trkpt lat="45.77248" lon="4.83722">
        <ele>181</ele>
        <time>2016-09-21T06:52:42Z</time>
      </trkpt>
      <trkpt lat="45.77243" lon="4.83733">
        <ele>177</ele>
        <time>2016-09-21T06:53:02Z</time>
      </trkpt>
      <trkpt lat="45.77242" lon="4.83737">
        <ele>178</ele>
        <time>2016-09-21T06:53:04Z</time>
      </trkpt>
      <trkpt lat="45.77235" lon="4.83767">
        <ele>174</ele>
        <time>2016-09-21T06:53:20Z</time>
      </trkpt>
      <trkpt lat="45.77247" lon="4.83797">
        <ele>174</ele>
        <time>2016-09-21T06:53:37Z</time>
      </trkpt>
      <trkpt lat="45.77247" lon="4.83819">
        <ele>182</ele>
        <time>2016-09-21T06:53:48Z</time>
      </trkpt>
      <trkpt lat="45.77247" lon="4.83822">
        <ele>182</ele>
        <time>2016-09-21T06:53:49Z</time>
      </trkpt>
      <trkpt lat="45.77241" lon="4.83853">
        <ele>183</ele>
        <time>2016-09-21T06:54:02Z</time>
      </trkpt>
      <trkpt lat="45.77241" lon="4.8388">
        <ele>181</ele>
        <time>2016-09-21T06:54:14Z</time>
      </trkpt>
      <trkpt lat="45.77237" lon="4.83907">
        <ele>180</ele>
        <time>2016-09-21T06:54:26Z</time>
      </trkpt>
      <trkpt lat="45.77235" lon="4.83945">
        <ele>179</ele>
        <time>2016-09-21T06:54:41Z</time>
      </trkpt>
      <trkpt lat="45.77234" lon="4.83952">
        <ele>179</ele>
        <time>2016-09-21T06:54:44Z</time>
      </trkpt>
      <trkpt lat="45.77232" lon="4.83978">
        <ele>180</ele>
        <time>2016-09-21T06:54:55Z</time>
      </trkpt>
      <trkpt lat="45.77229" lon="4.84027">
        <ele>181</ele>
        <time>2016-09-21T06:55:15Z</time>
      </trkpt>
      <trkpt lat="45.77227" lon="4.84045">
        <ele>179</ele>
        <time>2016-09-21T06:55:23Z</time>
      </trkpt>
      <trkpt lat="45.77225" lon="4.84057">
        <ele>181</ele>
        <time>2016-09-21T06:55:28Z</time>
      </trkpt>
      <trkpt lat="45.77218" lon="4.84089">
        <ele>181</ele>
        <time>2016-09-21T06:55:42Z</time>
      </trkpt>
      <trkpt lat="45.77193" lon="4.84101">
        <ele>180</ele>
        <time>2016-09-21T06:56:00Z</time>
      </trkpt>
      <trkpt lat="45.77187" lon="4.84102">
        <ele>181</ele>
        <time>2016-09-21T06:56:03Z</time>
      </trkpt>
      <trkpt lat="45.77168" lon="4.84103">
        <ele>183</ele>
        <time>2016-09-21T06:56:14Z</time>
      </trkpt>
      <trkpt lat="45.77141" lon="4.84104">
        <ele>180</ele>
        <time>2016-09-21T06:56:31Z</time>
      </trkpt>
      <trkpt lat="45.77143" lon="4.84082">
        <ele>176</ele>
        <time>2016-09-21T06:56:42Z</time>
      </trkpt>
      <trkpt lat="45.77149" lon="4.84081">
        <ele>176</ele>
        <time>2016-09-21T06:56:45Z</time>
      </trkpt>
      <trkpt lat="45.77183" lon="4.84071">
        <ele>170</ele>
        <time>2016-09-21T06:57:05Z</time>
      </trkpt>
      <trkpt lat="45.77181" lon="4.84068">
        <ele>169</ele>
        <time>2016-09-21T06:57:07Z</time>
      </trkpt>
      <trkpt lat="45.77157" lon="4.84064">
        <ele>173</ele>
        <time>2016-09-21T06:57:21Z</time>
      </trkpt>
      <trkpt lat="45.77143" lon="4.84067">
        <ele>177</ele>
        <time>2016-09-21T06:57:29Z</time>
      </trkpt>
      <trkpt lat="45.7712" lon="4.84068">
        <ele>176</ele>
        <time>2016-09-21T06:57:42Z</time>
      </trkpt>
      <trkpt lat="45.77102" lon="4.8407">
        <ele>182</ele>
        <time>2016-09-21T06:57:52Z</time>
      </trkpt>
      <trkpt lat="45.77067" lon="4.84069">
        <ele>183</ele>
        <time>2016-09-21T06:58:12Z</time>
      </trkpt>
      <trkpt lat="45.77063" lon="4.84069">
        <ele>180</ele>
        <time>2016-09-21T06:58:14Z</time>
      </trkpt>
      <trkpt lat="45.7703" lon="4.8407">
        <ele>185</ele>
        <time>2016-09-21T06:58:34Z</time>
      </trkpt>
      <trkpt lat="45.77028" lon="4.8407">
        <ele>186</ele>
        <time>2016-09-21T06:58:35Z</time>
      </trkpt>
      <trkpt lat="45.76999" lon="4.84057">
        <ele>189</ele>
        <time>2016-09-21T06:58:53Z</time>
      </trkpt>
      <trkpt lat="45.76985" lon="4.84066">
        <ele>192</ele>
        <time>2016-09-21T06:59:00Z</time>
      </trkpt>
      <trkpt lat="45.76959" lon="4.84066">
        <ele>192</ele>
        <time>2016-09-21T06:59:15Z</time>
      </trkpt>
      <trkpt lat="45.76954" lon="4.8406">
        <ele>191</ele>
        <time>2016-09-21T06:59:19Z</time>
      </trkpt>
      <trkpt lat="45.76935" lon="4.84064">
        <ele>193</ele>
        <time>2016-09-21T06:59:30Z</time>
      </trkpt>
      <trkpt lat="45.76912" lon="4.84066">
        <ele>192</ele>
        <time>2016-09-21T06:59:43Z</time>
      </trkpt>
      <trkpt lat="45.7688" lon="4.84067">
        <ele>192</ele>
        <time>2016-09-21T07:00:02Z</time>
      </trkpt>
      <trkpt lat="45.76875" lon="4.84066">
        <ele>191</ele>
        <time>2016-09-21T07:00:05Z</time>
      </trkpt>
      <trkpt lat="45.76853" lon="4.84058">
        <ele>182</ele>
        <time>2016-09-21T07:00:24Z</time>
      </trkpt>
      <trkpt lat="45.7683" lon="4.84064">
        <ele>186</ele>
        <time>2016-09-21T07:00:35Z</time>
      </trkpt>
      <trkpt lat="45.76819" lon="4.84066">
        <ele>187</ele>
        <time>2016-09-21T07:00:40Z</time>
      </trkpt>
      <trkpt lat="45.76795" lon="4.8407">
        <ele>189</ele>
        <time>2016-09-21T07:00:53Z</time>
      </trkpt>
      <trkpt lat="45.76781" lon="4.84069">
        <ele>194</ele>
        <time>2016-09-21T07:01:01Z</time>
      </trkpt>
      <trkpt lat="45.76769" lon="4.84065">
        <ele>183</ele>
        <time>2016-09-21T07:01:09Z</time>
      </trkpt>
      <trkpt lat="45.76746" lon="4.84064">
        <ele>187</ele>
        <time>2016-09-21T07:01:23Z</time>
      </trkpt>
      <trkpt lat="45.76731" lon="4.84069">
        <ele>187</ele>
        <time>2016-09-21T07:01:31Z</time>
      </trkpt>
      <trkpt lat="45.76713" lon="4.84074">
        <ele>182</ele>
        <time>2016-09-21T07:01:42Z</time>
      </trkpt>
      <trkpt lat="45.76692" lon="4.84081">
        <ele>188</ele>
        <time>2016-09-21T07:01:54Z</time>
      </trkpt>
      <trkpt lat="45.76666" lon="4.84082">
        <ele>192</ele>
        <time>2016-09-21T07:02:10Z</time>
      </trkpt>
      <trkpt lat="45.76656" lon="4.84081">
        <ele>188</ele>
        <time>2016-09-21T07:02:16Z</time>
      </trkpt>
      <trkpt lat="45.7664" lon="4.84084">
        <ele>186</ele>
        <time>2016-09-21T07:02:26Z</time>
      </trkpt>
      <trkpt lat="45.76608" lon="4.84089">
        <ele>187</ele>
        <time>2016-09-21T07:02:44Z</time>
      </trkpt>
      <trkpt lat="45.76601" lon="4.84087">
        <ele>188</ele>
        <time>2016-09-21T07:02:48Z</time>
      </trkpt>
      <trkpt lat="45.76579" lon="4.84098">
        <ele>190</ele>
        <time>2016-09-21T07:03:00Z</time>
      </trkpt>
      <trkpt lat="45.76545" lon="4.84096">
        <ele>185</ele>
        <time>2016-09-21T07:03:20Z</time>
      </trkpt>
      <trkpt lat="45.76544" lon="4.84096">
        <ele>185</ele>
        <time>2016-09-21T07:03:21Z</time>
      </trkpt>
      <trkpt lat="45.76519" lon="4.84099">
        <ele>195</ele>
        <time>2016-09-21T07:03:35Z</time>
      </trkpt>
      <trkpt lat="45.76505" lon="4.841">
        <ele>189</ele>
        <time>2016-09-21T07:03:43Z</time>
      </trkpt>
      <trkpt lat="45.76484" lon="4.84095">
        <ele>181</ele>
        <time>2016-09-21T07:03:57Z</time>
      </trkpt>
      <trkpt lat="45.76452" lon="4.84092">
        <ele>196</ele>
        <time>2016-09-21T07:04:15Z</time>
      </trkpt>
      <trkpt lat="45.76434" lon="4.84091">
        <ele>188</ele>
        <time>2016-09-21T07:04:26Z</time>
      </trkpt>
      <trkpt lat="45.76431" lon="4.84092">
        <ele>187</ele>
        <time>2016-09-21T07:04:28Z</time>
      </trkpt>
      <trkpt lat="45.7641" lon="4.8409">
        <ele>190</ele>
        <time>2016-09-21T07:04:41Z</time>
      </trkpt>
      <trkpt lat="45.76385" lon="4.84093">
        <ele>187</ele>
        <time>2016-09-21T07:04:55Z</time>
      </trkpt>
      <trkpt lat="45.7637" lon="4.84086">
        <ele>188</ele>
        <time>2016-09-21T07:05:04Z</time>
      </trkpt>
      <trkpt lat="45.76347" lon="4.84089">
        <ele>187</ele>
        <time>2016-09-21T07:05:20Z</time>
      </trkpt>
      <trkpt lat="45.76338" lon="4.8409">
        <ele>192</ele>
        <time>2016-09-21T07:05:24Z</time>
      </trkpt>
      <trkpt lat="45.76306" lon="4.84078">
        <ele>181</ele>
        <time>2016-09-21T07:05:42Z</time>
      </trkpt>
      <trkpt lat="45.76302" lon="4.84077">
        <ele>181</ele>
        <time>2016-09-21T07:05:44Z</time>
      </trkpt>
      <trkpt lat="45.7627" lon="4.8407">
        <ele>187</ele>
        <time>2016-09-21T07:06:02Z</time>
      </trkpt>
      <trkpt lat="45.76261" lon="4.84068">
        <ele>182</ele>
        <time>2016-09-21T07:06:07Z</time>
      </trkpt>
      <trkpt lat="45.76244" lon="4.84072">
        <ele>178</ele>
        <time>2016-09-21T07:06:17Z</time>
      </trkpt>
      <trkpt lat="45.76226" lon="4.84068">
        <ele>176</ele>
        <time>2016-09-21T07:06:28Z</time>
      </trkpt>
      <trkpt lat="45.76208" lon="4.84067">
        <ele>183</ele>
        <time>2016-09-21T07:06:39Z</time>
      </trkpt>
      <trkpt lat="45.7618" lon="4.84066">
        <ele>182</ele>
        <time>2016-09-21T07:06:55Z</time>
      </trkpt>
      <trkpt lat="45.76153" lon="4.84062">
        <ele>178</ele>
        <time>2016-09-21T07:07:11Z</time>
      </trkpt>
      <trkpt lat="45.76146" lon="4.84061">
        <ele>177</ele>
        <time>2016-09-21T07:07:15Z</time>
      </trkpt>
      <trkpt lat="45.7613" lon="4.84059">
        <ele>178</ele>
        <time>2016-09-21T07:07:24Z</time>
      </trkpt>
      <trkpt lat="45.76096" lon="4.84052">
        <ele>178</ele>
        <time>2016-09-21T07:07:44Z</time>
      </trkpt>
      <trkpt lat="45.76077" lon="4.8405">
        <ele>181</ele>
        <time>2016-09-21T07:07:55Z</time>
      </trkpt>
      <trkpt lat="45.76075" lon="4.84049">
        <ele>180</ele>
        <time>2016-09-21T07:07:56Z</time>
      </trkpt>
      <trkpt lat="45.76052" lon="4.84046">
        <ele>178</ele>
        <time>2016-09-21T07:08:10Z</time>
      </trkpt>
      <trkpt lat="45.76039" lon="4.84043">
        <ele>175</ele>
        <time>2016-09-21T07:08:18Z</time>
      </trkpt>
      <trkpt lat="45.76022" lon="4.84037">
        <ele>169</ele>
        <time>2016-09-21T07:08:29Z</time>
      </trkpt>
      <trkpt lat="45.75976" lon="4.84035">
        <ele>181</ele>
        <time>2016-09-21T07:08:55Z</time>
      </trkpt>
      <trkpt lat="45.75952" lon="4.84034">
        <ele>189</ele>
        <time>2016-09-21T07:09:08Z</time>
      </trkpt>
      <trkpt lat="45.75948" lon="4.84034">
        <ele>190</ele>
        <time>2016-09-21T07:09:10Z</time>
      </trkpt>
      <trkpt lat="45.75921" lon="4.84031">
        <ele>187</ele>
        <time>2016-09-21T07:09:26Z</time>
      </trkpt>
      <trkpt lat="45.75902" lon="4.84028">
        <ele>177</ele>
        <time>2016-09-21T07:09:37Z</time>
      </trkpt>
      <trkpt lat="45.75892" lon="4.84025">
        <ele>170</ele>
        <time>2016-09-21T07:09:43Z</time>
      </trkpt>
      <trkpt lat="45.75873" lon="4.84026">
        <ele>178</ele>
        <time>2016-09-21T07:09:54Z</time>
      </trkpt>
      <trkpt lat="45.75851" lon="4.84024">
        <ele>182</ele>
        <time>2016-09-21T07:10:06Z</time>
      </trkpt>
      <trkpt lat="45.75834" lon="4.84017">
        <ele>185</ele>
        <time>2016-09-21T07:10:17Z</time>
      </trkpt>
      <trkpt lat="45.75814" lon="4.84013">
        <ele>182</ele>
        <time>2016-09-21T07:10:29Z</time>
      </trkpt>
      <trkpt lat="45.758" lon="4.84007">
        <ele>181</ele>
        <time>2016-09-21T07:10:38Z</time>
      </trkpt>
      <trkpt lat="45.75782" lon="4.84002">
        <ele>180</ele>
        <time>2016-09-21T07:10:49Z</time>
      </trkpt>
      <trkpt lat="45.75754" lon="4.83989">
        <ele>174</ele>
        <time>2016-09-21T07:11:07Z</time>
      </trkpt>
      <trkpt lat="45.75747" lon="4.83985">
        <ele>175</ele>
        <time>2016-09-21T07:11:11Z</time>
      </trkpt>
      <trkpt lat="45.75722" lon="4.83973">
        <ele>183</ele>
        <time>2016-09-21T07:11:27Z</time>
      </trkpt>
      <trkpt lat="45.75711" lon="4.83968">
        <ele>184</ele>
        <time>2016-09-21T07:11:34Z</time>
      </trkpt>
      <trkpt lat="45.75691" lon="4.8396">
        <ele>183</ele>
        <time>2016-09-21T07:11:46Z</time>
      </trkpt>
      <trkpt lat="45.75677" lon="4.83954">
        <ele>184</ele>
        <time>2016-09-21T07:11:55Z</time>
      </trkpt>
      <trkpt lat="45.75659" lon="4.83944">
        <ele>185</ele>
        <time>2016-09-21T07:12:06Z</time>
      </trkpt>
      <trkpt lat="45.75628" lon="4.83954">
        <ele>184</ele>
        <time>2016-09-21T07:12:31Z</time>
      </trkpt>
      <trkpt lat="45.75612" lon="4.83948">
        <ele>182</ele>
        <time>2016-09-21T07:12:41Z</time>
      </trkpt>
      <trkpt lat="45.75603" lon="4.83943">
        <ele>182</ele>
        <time>2016-09-21T07:12:46Z</time>
      </trkpt>
      <trkpt lat="45.75584" lon="4.83931">
        <ele>173</ele>
        <time>2016-09-21T07:12:58Z</time>
      </trkpt>
      <trkpt lat="45.7557" lon="4.83922">
        <ele>171</ele>
        <time>2016-09-21T07:13:07Z</time>
      </trkpt>
      <trkpt lat="45.75553" lon="4.83918">
        <ele>177</ele>
        <time>2016-09-21T07:13:18Z</time>
      </trkpt>
      <trkpt lat="45.75542" lon="4.83946">
        <ele>181</ele>
        <time>2016-09-21T07:13:34Z</time>
      </trkpt>
      <trkpt lat="45.75516" lon="4.83939">
        <ele>183</ele>
        <time>2016-09-21T07:13:50Z</time>
      </trkpt>
      <trkpt lat="45.75514" lon="4.83937">
        <ele>183</ele>
        <time>2016-09-21T07:13:51Z</time>
      </trkpt>
      <trkpt lat="45.75499" lon="4.83924">
        <ele>180</ele>
        <time>2016-09-21T07:14:02Z</time>
      </trkpt>
      <trkpt lat="45.75475" lon="4.83906">
        <ele>179</ele>
        <time>2016-09-21T07:14:18Z</time>
      </trkpt>
      <trkpt lat="45.75466" lon="4.83899">
        <ele>177</ele>
        <time>2016-09-21T07:14:24Z</time>
      </trkpt>
      <trkpt lat="45.7545" lon="4.83884">
        <ele>178</ele>
        <time>2016-09-21T07:14:35Z</time>
      </trkpt>
      <trkpt lat="45.75428" lon="4.83867">
        <ele>175</ele>
        <time>2016-09-21T07:14:49Z</time>
      </trkpt>
      <trkpt lat="45.75416" lon="4.83857">
        <ele>173</ele>
        <time>2016-09-21T07:14:57Z</time>
      </trkpt>
      <trkpt lat="45.7539" lon="4.83843">
        <ele>172</ele>
        <time>2016-09-21T07:15:14Z</time>
      </trkpt>
      <trkpt lat="45.75382" lon="4.83835">
        <ele>178</ele>
        <time>2016-09-21T07:15:20Z</time>
      </trkpt>
      <trkpt lat="45.75367" lon="4.83825">
        <ele>181</ele>
        <time>2016-09-21T07:15:30Z</time>
      </trkpt>
      <trkpt lat="45.75339" lon="4.83807">
        <ele>192</ele>
        <time>2016-09-21T07:15:47Z</time>
      </trkpt>
      <trkpt lat="45.7533" lon="4.83799">
        <ele>191</ele>
        <time>2016-09-21T07:15:53Z</time>
      </trkpt>
      <trkpt lat="45.75313" lon="4.83783">
        <ele>190</ele>
        <time>2016-09-21T07:16:06Z</time>
      </trkpt>
      <trkpt lat="45.75298" lon="4.83766">
        <ele>186</ele>
        <time>2016-09-21T07:16:18Z</time>
      </trkpt>
      <trkpt lat="45.75288" lon="4.8376">
        <ele>184</ele>
        <time>2016-09-21T07:16:25Z</time>
      </trkpt>
      <trkpt lat="45.75272" lon="4.83749">
        <ele>182</ele>
        <time>2016-09-21T07:16:36Z</time>
      </trkpt>
      <trkpt lat="45.75256" lon="4.83736">
        <ele>181</ele>
        <time>2016-09-21T07:16:47Z</time>
      </trkpt>
      <trkpt lat="45.7524" lon="4.83716">
        <ele>173</ele>
        <time>2016-09-21T07:16:58Z</time>
      </trkpt>
      <trkpt lat="45.7522" lon="4.83707">
        <ele>169</ele>
        <time>2016-09-21T07:17:12Z</time>
      </trkpt>
      <trkpt lat="45.75206" lon="4.83681">
        <ele>174</ele>
        <time>2016-09-21T07:17:26Z</time>
      </trkpt>
      <trkpt lat="45.75212" lon="4.83668">
        <ele>176</ele>
        <time>2016-09-21T07:17:32Z</time>
      </trkpt>
      <trkpt lat="45.75224" lon="4.83643">
        <ele>184</ele>
        <time>2016-09-21T07:17:45Z</time>
      </trkpt>
      <trkpt lat="45.75232" lon="4.83626">
        <ele>183</ele>
        <time>2016-09-21T07:17:54Z</time>
      </trkpt>
      <trkpt lat="45.75242" lon="4.83607">
        <ele>187</ele>
        <time>2016-09-21T07:18:04Z</time>
      </trkpt>
      <trkpt lat="45.75251" lon="4.83578">
        <ele>186</ele>
        <time>2016-09-21T07:18:17Z</time>
      </trkpt>
      <trkpt lat="45.75263" lon="4.83552">
        <ele>184</ele>
        <time>2016-09-21T07:18:30Z</time>
      </trkpt>
      <trkpt lat="45.75273" lon="4.83523">
        <ele>182</ele>
        <time>2016-09-21T07:18:43Z</time>
      </trkpt>
      <trkpt lat="45.75277" lon="4.83513">
        <ele>184</ele>
        <time>2016-09-21T07:18:48Z</time>
      </trkpt>
      <trkpt lat="45.7529" lon="4.83486">
        <ele>185</ele>
        <time>2016-09-21T07:19:02Z</time>
      </trkpt>
      <trkpt lat="45.753" lon="4.83448">
        <ele>170</ele>
        <time>2016-09-21T07:19:19Z</time>
      </trkpt>
      <trkpt lat="45.75302" lon="4.83444">
        <ele>170</ele>
        <time>2016-09-21T07:19:21Z</time>
      </trkpt>
      <trkpt lat="45.7531" lon="4.83422">
        <ele>169</ele>
        <time>2016-09-21T07:19:32Z</time>
      </trkpt>
      <trkpt lat="45.75312" lon="4.83404">
        <ele>169</ele>
        <time>2016-09-21T07:19:48Z</time>
      </trkpt>
      <trkpt lat="45.75312" lon="4.83404">
        <ele>170</ele>
        <time>2016-09-21T07:19:54Z</time>
      </trkpt>
      <trkpt lat="45.75315" lon="4.83396">
        <ele>172</ele>
        <time>2016-09-21T07:20:07Z</time>
      </trkpt>
      <trkpt lat="45.75333" lon="4.8336">
        <ele>174</ele>
        <time>2016-09-21T07:20:25Z</time>
      </trkpt>
      <trkpt lat="45.75342" lon="4.83356">
        <ele>173</ele>
        <time>2016-09-21T07:20:31Z</time>
      </trkpt>
      <trkpt lat="45.75354" lon="4.83337">
        <ele>173</ele>
        <time>2016-09-21T07:20:41Z</time>
      </trkpt>
      <trkpt lat="45.75362" lon="4.83313">
        <ele>172</ele>
        <time>2016-09-21T07:20:52Z</time>
      </trkpt>
      <trkpt lat="45.75362" lon="4.83284">
        <ele>171</ele>
        <time>2016-09-21T07:21:03Z</time>
      </trkpt>
      <trkpt lat="45.75377" lon="4.83268">
        <ele>177</ele>
        <time>2016-09-21T07:21:14Z</time>
      </trkpt>
      <trkpt lat="45.75388" lon="4.83244">
        <ele>180</ele>
        <time>2016-09-21T07:21:25Z</time>
      </trkpt>
      <trkpt lat="45.75394" lon="4.83208">
        <ele>185</ele>
        <time>2016-09-21T07:21:42Z</time>
      </trkpt>
      <trkpt lat="45.75407" lon="4.83192">
        <ele>180</ele>
        <time>2016-09-21T07:21:51Z</time>
      </trkpt>
      <trkpt lat="45.7541" lon="4.83156">
        <ele>170</ele>
        <time>2016-09-21T07:22:04Z</time>
      </trkpt>
      <trkpt lat="45.75407" lon="4.83142">
        <ele>165</ele>
        <time>2016-09-21T07:22:09Z</time>
      </trkpt>
      <trkpt lat="45.75442" lon="4.83105">
        <ele>173</ele>
        <time>2016-09-21T07:22:31Z</time>
      </trkpt>
      <trkpt lat="45.75438" lon="4.83083">
        <ele>172</ele>
        <time>2016-09-21T07:22:38Z</time>
      </trkpt>
      <trkpt lat="45.7544" lon="4.83079">
        <ele>171</ele>
        <time>2016-09-21T07:22:43Z</time>
      </trkpt>
      <trkpt lat="45.75453" lon="4.83062">
        <ele>172</ele>
        <time>2016-09-21T07:22:54Z</time>
      </trkpt>
      <trkpt lat="45.75453" lon="4.83013">
        <ele>177</ele>
        <time>2016-09-21T07:23:12Z</time>
      </trkpt>
      <trkpt lat="45.75458" lon="4.83006">
        <ele>177</ele>
        <time>2016-09-21T07:23:16Z</time>
      </trkpt>
      <trkpt lat="45.75433" lon="4.8299">
        <ele>177</ele>
        <time>2016-09-21T07:23:32Z</time>
      </trkpt>
      <trkpt lat="45.75406" lon="4.82988">
        <ele>174</ele>
        <time>2016-09-21T07:23:48Z</time>
      </trkpt>
      <trkpt lat="45.75395" lon="4.82989">
        <ele>171</ele>
        <time>2016-09-21T07:23:54Z</time>
      </trkpt>
      <trkpt lat="45.75376" lon="4.82976">
        <ele>179</ele>
        <time>2016-09-21T07:24:07Z</time>
      </trkpt>
      <trkpt lat="45.75387" lon="4.82934">
        <ele>184</ele>
        <time>2016-09-21T07:24:20Z</time>
      </trkpt>
      <trkpt lat="45.75397" lon="4.82912">
        <ele>185</ele>
        <time>2016-09-21T07:24:31Z</time>
      </trkpt>
      <trkpt lat="45.75396" lon="4.82907">
        <ele>185</ele>
        <time>2016-09-21T07:24:33Z</time>
      </trkpt>
    </trkseg>
  </trk>
</gpx>